sensor_id;sensor_type;location;lat;lon;timestamp;P1;durP1;ratioP1;P2;durP2;ratioP2
8654;SDS011;13500;52.514;13.462;2023-01-09T00:00:07;13.93;;;11.37;;
8654;SDS011;13500;52.514;13.462;2023-01-09T00:02:37;15.13;;;11.47;;
8654;SDS011;13500;52.514;13.462;2023-01-09T00:05:06;13.50;;;11.83;;
8654;SDS011;13500;52.514;13.462;2023-01-09T00:07:34;14.17;;;12.17;;
8654;SDS011;13500;52.514;13.462;2023-01-09T00:10:03;14.47;;;11.37;;
8654;SDS011;13500;52.514;13.462;2023-01-09T00:12:34;14.87;;;12.60;;
8654;SDS011;13500;52.514;13.462;2023-01-09T00:15:04;14.90;;;11.73;;
8654;SDS011;13500;52.514;13.462;2023-01-09T00:17:34;14.33;;;11.57;;
8654;SDS011;13500;52.514;13.462;2023-01-09T00:20:02;15.47;;;12.00;;
8654;SDS011;13500;52.514;13.462;2023-01-09T00:22:32;13.53;;;11.57;;
8654;SDS011;13500;52.514;13.462;2023-01-09T00:25:00;15.27;;;12.00;;
8654;SDS011;13500;52.514;13.462;2023-01-09T00:27:30;13.63;;;11.60;;
8654;SDS011;13500;52.514;13.462;2023-01-09T00:29:59;13.43;;;12.10;;
8654;SDS011;13500;52.514;13.462;2023-01-09T00:32:29;14.77;;;12.47;;
8654;SDS011;13500;52.514;13.462;2023-01-09T00:34:58;13.27;;;11.87;;
8654;SDS011;13500;52.514;13.462;2023-01-09T00:37:26;14.50;;;12.83;;
8654;SDS011;13500;52.514;13.462;2023-01-09T00:39:54;14.20;;;12.73;;
8654;SDS011;13500;52.514;13.462;2023-01-09T00:42:23;15.77;;;13.13;;
8654;SDS011;13500;52.514;13.462;2023-01-09T00:44:56;14.73;;;12.93;;
8654;SDS011;13500;52.514;13.462;2023-01-09T00:47:27;15.57;;;12.60;;
8654;SDS011;13500;52.514;13.462;2023-01-09T00:50:03;14.60;;;12.33;;
8654;SDS011;13500;52.514;13.462;2023-01-09T00:52:34;14.20;;;12.17;;
8654;SDS011;13500;52.514;13.462;2023-01-09T00:55:03;13.77;;;12.37;;
8654;SDS011;13500;52.514;13.462;2023-01-09T00:57:33;13.03;;;11.73;;
8654;SDS011;13500;52.514;13.462;2023-01-09T01:00:01;14.17;;;12.63;;
8654;SDS011;13500;52.514;13.462;2023-01-09T01:02:31;13.40;;;12.00;;
8654;SDS011;13500;52.514;13.462;2023-01-09T01:05:01;15.67;;;12.97;;
8654;SDS011;13500;52.514;13.462;2023-01-09T01:07:48;16.97;;;12.40;;
8654;SDS011;13500;52.514;13.462;2023-01-09T01:10:17;16.37;;;14.10;;
8654;SDS011;13500;52.514;13.462;2023-01-09T01:12:47;15.27;;;13.20;;
8654;SDS011;13500;52.514;13.462;2023-01-09T01:15:16;14.93;;;13.20;;
8654;SDS011;13500;52.514;13.462;2023-01-09T01:17:46;15.07;;;13.17;;
8654;SDS011;13500;52.514;13.462;2023-01-09T01:20:16;16.33;;;13.53;;
8654;SDS011;13500;52.514;13.462;2023-01-09T01:22:46;15.37;;;13.53;;
8654;SDS011;13500;52.514;13.462;2023-01-09T01:25:15;17.47;;;13.27;;
8654;SDS011;13500;52.514;13.462;2023-01-09T01:27:43;15.83;;;13.50;;
8654;SDS011;13500;52.514;13.462;2023-01-09T01:30:12;15.37;;;13.73;;
8654;SDS011;13500;52.514;13.462;2023-01-09T01:32:43;17.13;;;14.57;;
8654;SDS011;13500;52.514;13.462;2023-01-09T01:35:13;16.60;;;13.90;;
8654;SDS011;13500;52.514;13.462;2023-01-09T01:37:43;19.03;;;14.67;;
8654;SDS011;13500;52.514;13.462;2023-01-09T01:40:16;15.90;;;13.87;;
8654;SDS011;13500;52.514;13.462;2023-01-09T01:42:46;15.57;;;13.80;;
8654;SDS011;13500;52.514;13.462;2023-01-09T01:45:16;17.70;;;13.97;;
8654;SDS011;13500;52.514;13.462;2023-01-09T01:47:48;19.77;;;14.80;;
8654;SDS011;13500;52.514;13.462;2023-01-09T01:50:20;17.37;;;13.93;;
8654;SDS011;13500;52.514;13.462;2023-01-09T01:52:52;16.17;;;14.47;;
8654;SDS011;13500;52.514;13.462;2023-01-09T01:55:24;15.50;;;13.77;;
8654;SDS011;13500;52.514;13.462;2023-01-09T01:57:53;16.40;;;13.27;;
8654;SDS011;13500;52.514;13.462;2023-01-09T02:00:24;16.63;;;13.87;;
8654;SDS011;13500;52.514;13.462;2023-01-09T02:02:57;15.53;;;13.20;;
8654;SDS011;13500;52.514;13.462;2023-01-09T02:05:27;16.47;;;14.07;;
8654;SDS011;13500;52.514;13.462;2023-01-09T02:07:56;17.67;;;14.27;;
8654;SDS011;13500;52.514;13.462;2023-01-09T02:10:24;17.27;;;13.83;;
8654;SDS011;13500;52.514;13.462;2023-01-09T02:12:52;16.33;;;13.80;;
8654;SDS011;13500;52.514;13.462;2023-01-09T02:15:21;16.23;;;13.97;;
8654;SDS011;13500;52.514;13.462;2023-01-09T02:17:57;18.53;;;14.93;;
8654;SDS011;13500;52.514;13.462;2023-01-09T02:20:41;19.00;;;15.33;;
8654;SDS011;13500;52.514;13.462;2023-01-09T02:26:28;18.20;;;15.53;;
8654;SDS011;13500;52.514;13.462;2023-01-09T02:29:34;19.07;;;15.77;;
8654;SDS011;13500;52.514;13.462;2023-01-09T02:32:42;18.53;;;14.90;;
8654;SDS011;13500;52.514;13.462;2023-01-09T02:35:15;18.57;;;15.23;;
8654;SDS011;13500;52.514;13.462;2023-01-09T02:37:50;17.20;;;14.87;;
8654;SDS011;13500;52.514;13.462;2023-01-09T02:40:25;17.33;;;15.10;;
8654;SDS011;13500;52.514;13.462;2023-01-09T02:42:55;19.40;;;15.37;;
8654;SDS011;13500;52.514;13.462;2023-01-09T02:45:24;18.83;;;15.43;;
8654;SDS011;13500;52.514;13.462;2023-01-09T02:47:54;16.90;;;14.63;;
8654;SDS011;13500;52.514;13.462;2023-01-09T02:50:26;17.77;;;15.07;;
8654;SDS011;13500;52.514;13.462;2023-01-09T02:53:10;20.40;;;15.97;;
8654;SDS011;13500;52.514;13.462;2023-01-09T02:56:01;19.33;;;17.07;;
8654;SDS011;13500;52.514;13.462;2023-01-09T02:58:46;17.90;;;14.70;;
8654;SDS011;13500;52.514;13.462;2023-01-09T03:01:25;18.50;;;14.60;;
8654;SDS011;13500;52.514;13.462;2023-01-09T03:03:58;17.27;;;14.83;;
8654;SDS011;13500;52.514;13.462;2023-01-09T03:06:29;17.47;;;15.13;;
8654;SDS011;13500;52.514;13.462;2023-01-09T03:09:04;17.57;;;15.33;;
8654;SDS011;13500;52.514;13.462;2023-01-09T03:11:39;19.63;;;14.73;;
8654;SDS011;13500;52.514;13.462;2023-01-09T03:14:11;16.20;;;13.93;;
8654;SDS011;13500;52.514;13.462;2023-01-09T03:16:43;17.27;;;14.83;;
8654;SDS011;13500;52.514;13.462;2023-01-09T03:19:17;21.00;;;15.63;;
8654;SDS011;13500;52.514;13.462;2023-01-09T03:21:46;17.70;;;15.33;;
8654;SDS011;13500;52.514;13.462;2023-01-09T03:24:17;17.80;;;15.03;;
8654;SDS011;13500;52.514;13.462;2023-01-09T03:26:45;19.47;;;15.57;;
8654;SDS011;13500;52.514;13.462;2023-01-09T03:29:14;18.30;;;15.40;;
8654;SDS011;13500;52.514;13.462;2023-01-09T03:31:43;17.17;;;15.27;;
8654;SDS011;13500;52.514;13.462;2023-01-09T03:34:11;19.03;;;15.43;;
8654;SDS011;13500;52.514;13.462;2023-01-09T03:36:40;18.70;;;15.50;;
8654;SDS011;13500;52.514;13.462;2023-01-09T03:39:08;17.20;;;15.20;;
8654;SDS011;13500;52.514;13.462;2023-01-09T03:41:37;17.03;;;14.97;;
8654;SDS011;13500;52.514;13.462;2023-01-09T03:44:05;16.13;;;14.43;;
8654;SDS011;13500;52.514;13.462;2023-01-09T03:46:33;17.77;;;14.27;;
8654;SDS011;13500;52.514;13.462;2023-01-09T03:49:01;17.43;;;14.67;;
8654;SDS011;13500;52.514;13.462;2023-01-09T03:51:29;15.90;;;14.00;;
8654;SDS011;13500;52.514;13.462;2023-01-09T03:53:59;16.67;;;14.60;;
8654;SDS011;13500;52.514;13.462;2023-01-09T03:56:27;15.17;;;13.57;;
8654;SDS011;13500;52.514;13.462;2023-01-09T03:58:56;16.23;;;14.53;;
8654;SDS011;13500;52.514;13.462;2023-01-09T04:01:26;19.03;;;14.30;;
8654;SDS011;13500;52.514;13.462;2023-01-09T04:03:55;16.03;;;14.33;;
8654;SDS011;13500;52.514;13.462;2023-01-09T04:06:23;17.17;;;14.67;;
8654;SDS011;13500;52.514;13.462;2023-01-09T04:08:51;15.93;;;14.23;;
8654;SDS011;13500;52.514;13.462;2023-01-09T04:11:21;16.50;;;14.43;;
8654;SDS011;13500;52.514;13.462;2023-01-09T04:13:50;16.67;;;14.03;;
8654;SDS011;13500;52.514;13.462;2023-01-09T04:16:18;15.33;;;13.73;;
8654;SDS011;13500;52.514;13.462;2023-01-09T04:18:46;15.87;;;13.93;;
8654;SDS011;13500;52.514;13.462;2023-01-09T04:21:15;17.03;;;14.53;;
8654;SDS011;13500;52.514;13.462;2023-01-09T04:23:43;16.37;;;14.57;;
8654;SDS011;13500;52.514;13.462;2023-01-09T04:26:11;16.67;;;14.70;;
8654;SDS011;13500;52.514;13.462;2023-01-09T04:28:40;16.70;;;14.80;;
8654;SDS011;13500;52.514;13.462;2023-01-09T04:31:09;16.50;;;14.70;;
8654;SDS011;13500;52.514;13.462;2023-01-09T04:33:38;16.50;;;14.70;;
8654;SDS011;13500;52.514;13.462;2023-01-09T04:36:06;17.17;;;15.27;;
8654;SDS011;13500;52.514;13.462;2023-01-09T04:38:37;17.83;;;15.93;;
8654;SDS011;13500;52.514;13.462;2023-01-09T04:41:05;18.63;;;14.63;;
8654;SDS011;13500;52.514;13.462;2023-01-09T04:43:33;16.33;;;14.53;;
8654;SDS011;13500;52.514;13.462;2023-01-09T04:46:03;16.33;;;14.63;;
8654;SDS011;13500;52.514;13.462;2023-01-09T04:48:31;17.30;;;15.27;;
8654;SDS011;13500;52.514;13.462;2023-01-09T04:51:00;17.23;;;14.63;;
8654;SDS011;13500;52.514;13.462;2023-01-09T04:53:28;16.07;;;14.37;;
8654;SDS011;13500;52.514;13.462;2023-01-09T04:55:56;16.70;;;14.90;;
8654;SDS011;13500;52.514;13.462;2023-01-09T04:58:25;17.13;;;15.20;;
8654;SDS011;13500;52.514;13.462;2023-01-09T05:00:53;17.73;;;15.83;;
8654;SDS011;13500;52.514;13.462;2023-01-09T05:03:23;18.10;;;15.07;;
8654;SDS011;13500;52.514;13.462;2023-01-09T05:05:51;18.37;;;14.60;;
8654;SDS011;13500;52.514;13.462;2023-01-09T05:08:19;16.97;;;15.03;;
8654;SDS011;13500;52.514;13.462;2023-01-09T05:10:47;18.77;;;15.63;;
8654;SDS011;13500;52.514;13.462;2023-01-09T05:13:17;18.27;;;15.40;;
8654;SDS011;13500;52.514;13.462;2023-01-09T05:15:46;19.17;;;15.73;;
8654;SDS011;13500;52.514;13.462;2023-01-09T05:18:14;18.67;;;15.27;;
8654;SDS011;13500;52.514;13.462;2023-01-09T05:20:44;18.73;;;16.23;;
8654;SDS011;13500;52.514;13.462;2023-01-09T05:23:12;17.47;;;15.07;;
8654;SDS011;13500;52.514;13.462;2023-01-09T05:25:41;19.87;;;15.50;;
8654;SDS011;13500;52.514;13.462;2023-01-09T05:28:09;16.93;;;15.03;;
8654;SDS011;13500;52.514;13.462;2023-01-09T05:30:37;18.13;;;15.97;;
8654;SDS011;13500;52.514;13.462;2023-01-09T05:33:06;18.73;;;15.90;;
8654;SDS011;13500;52.514;13.462;2023-01-09T05:35:36;20.37;;;16.63;;
8654;SDS011;13500;52.514;13.462;2023-01-09T05:38:05;19.67;;;16.30;;
8654;SDS011;13500;52.514;13.462;2023-01-09T05:40:34;19.50;;;16.20;;
8654;SDS011;13500;52.514;13.462;2023-01-09T05:43:07;23.03;;;17.70;;
8654;SDS011;13500;52.514;13.462;2023-01-09T05:45:35;20.27;;;16.77;;
8654;SDS011;13500;52.514;13.462;2023-01-09T05:48:05;22.07;;;17.83;;
8654;SDS011;13500;52.514;13.462;2023-01-09T05:50:33;25.67;;;18.70;;
8654;SDS011;13500;52.514;13.462;2023-01-09T05:53:01;22.67;;;17.93;;
8654;SDS011;13500;52.514;13.462;2023-01-09T05:55:31;22.17;;;17.37;;
8654;SDS011;13500;52.514;13.462;2023-01-09T05:57:59;23.40;;;18.63;;
8654;SDS011;13500;52.514;13.462;2023-01-09T06:00:30;25.40;;;19.90;;
8654;SDS011;13500;52.514;13.462;2023-01-09T06:02:59;26.40;;;19.37;;
8654;SDS011;13500;52.514;13.462;2023-01-09T06:05:27;24.93;;;19.90;;
8654;SDS011;13500;52.514;13.462;2023-01-09T06:07:56;28.57;;;20.33;;
8654;SDS011;13500;52.514;13.462;2023-01-09T06:10:25;29.30;;;20.23;;
8654;SDS011;13500;52.514;13.462;2023-01-09T06:12:54;30.10;;;22.00;;
8654;SDS011;13500;52.514;13.462;2023-01-09T06:15:23;30.47;;;21.40;;
8654;SDS011;13500;52.514;13.462;2023-01-09T06:17:51;30.00;;;21.37;;
8654;SDS011;13500;52.514;13.462;2023-01-09T06:20:20;32.00;;;21.40;;
8654;SDS011;13500;52.514;13.462;2023-01-09T06:22:49;32.13;;;22.87;;
8654;SDS011;13500;52.514;13.462;2023-01-09T06:25:19;31.83;;;22.53;;
8654;SDS011;13500;52.514;13.462;2023-01-09T06:27:47;34.77;;;23.33;;
8654;SDS011;13500;52.514;13.462;2023-01-09T06:30:19;35.90;;;23.40;;
8654;SDS011;13500;52.514;13.462;2023-01-09T06:32:48;32.90;;;23.53;;
8654;SDS011;13500;52.514;13.462;2023-01-09T06:35:16;35.07;;;23.60;;
8654;SDS011;13500;52.514;13.462;2023-01-09T06:37:47;33.43;;;23.00;;
8654;SDS011;13500;52.514;13.462;2023-01-09T06:40:16;32.53;;;23.97;;
8654;SDS011;13500;52.514;13.462;2023-01-09T06:42:46;35.27;;;24.73;;
8654;SDS011;13500;52.514;13.462;2023-01-09T06:45:15;35.77;;;24.77;;
8654;SDS011;13500;52.514;13.462;2023-01-09T06:47:46;37.87;;;24.67;;
8654;SDS011;13500;52.514;13.462;2023-01-09T06:50:16;36.13;;;25.10;;
8654;SDS011;13500;52.514;13.462;2023-01-09T06:52:45;36.10;;;23.23;;
8654;SDS011;13500;52.514;13.462;2023-01-09T06:55:13;35.03;;;24.07;;
8654;SDS011;13500;52.514;13.462;2023-01-09T06:57:43;35.50;;;24.53;;
8654;SDS011;13500;52.514;13.462;2023-01-09T07:00:13;38.50;;;25.00;;
8654;SDS011;13500;52.514;13.462;2023-01-09T07:02:41;37.67;;;25.27;;
8654;SDS011;13500;52.514;13.462;2023-01-09T07:05:11;41.93;;;25.63;;
8654;SDS011;13500;52.514;13.462;2023-01-09T07:07:39;39.17;;;25.37;;
8654;SDS011;13500;52.514;13.462;2023-01-09T07:10:08;39.83;;;25.33;;
8654;SDS011;13500;52.514;13.462;2023-01-09T07:12:38;36.93;;;25.43;;
8654;SDS011;13500;52.514;13.462;2023-01-09T07:15:07;35.73;;;25.00;;
8654;SDS011;13500;52.514;13.462;2023-01-09T07:17:38;34.57;;;24.90;;
8654;SDS011;13500;52.514;13.462;2023-01-09T07:20:06;40.90;;;25.57;;
8654;SDS011;13500;52.514;13.462;2023-01-09T07:22:37;43.87;;;26.77;;
8654;SDS011;13500;52.514;13.462;2023-01-09T07:25:07;37.53;;;25.33;;
8654;SDS011;13500;52.514;13.462;2023-01-09T07:27:35;39.43;;;25.57;;
8654;SDS011;13500;52.514;13.462;2023-01-09T07:30:04;39.40;;;27.13;;
8654;SDS011;13500;52.514;13.462;2023-01-09T07:32:34;39.67;;;25.17;;
8654;SDS011;13500;52.514;13.462;2023-01-09T07:35:04;38.70;;;25.63;;
8654;SDS011;13500;52.514;13.462;2023-01-09T07:37:33;39.57;;;25.17;;
8654;SDS011;13500;52.514;13.462;2023-01-09T07:40:04;43.90;;;26.10;;
8654;SDS011;13500;52.514;13.462;2023-01-09T07:42:33;41.00;;;25.93;;
8654;SDS011;13500;52.514;13.462;2023-01-09T07:45:05;45.33;;;27.40;;
8654;SDS011;13500;52.514;13.462;2023-01-09T07:47:34;46.10;;;27.90;;
8654;SDS011;13500;52.514;13.462;2023-01-09T07:50:02;41.40;;;27.23;;
8654;SDS011;13500;52.514;13.462;2023-01-09T07:52:32;43.47;;;26.57;;
8654;SDS011;13500;52.514;13.462;2023-01-09T07:55:01;43.33;;;26.20;;
8654;SDS011;13500;52.514;13.462;2023-01-09T07:57:31;42.30;;;26.03;;
8654;SDS011;13500;52.514;13.462;2023-01-09T07:59:59;38.30;;;25.87;;
8654;SDS011;13500;52.514;13.462;2023-01-09T08:02:36;41.47;;;25.47;;
8654;SDS011;13500;52.514;13.462;2023-01-09T08:05:05;45.10;;;25.60;;
8654;SDS011;13500;52.514;13.462;2023-01-09T08:07:39;38.83;;;24.70;;
8654;SDS011;13500;52.514;13.462;2023-01-09T08:10:09;40.20;;;26.13;;
8654;SDS011;13500;52.514;13.462;2023-01-09T08:12:42;44.77;;;27.53;;
8654;SDS011;13500;52.514;13.462;2023-01-09T08:15:11;42.37;;;24.33;;
8654;SDS011;13500;52.514;13.462;2023-01-09T08:17:40;43.70;;;26.00;;
8654;SDS011;13500;52.514;13.462;2023-01-09T08:20:10;41.70;;;26.03;;
8654;SDS011;13500;52.514;13.462;2023-01-09T08:22:41;46.83;;;26.03;;
8654;SDS011;13500;52.514;13.462;2023-01-09T08:25:09;46.27;;;26.87;;
8654;SDS011;13500;52.514;13.462;2023-01-09T08:27:38;43.73;;;26.83;;
8654;SDS011;13500;52.514;13.462;2023-01-09T08:30:10;44.03;;;27.47;;
8654;SDS011;13500;52.514;13.462;2023-01-09T08:32:39;46.40;;;27.17;;
8654;SDS011;13500;52.514;13.462;2023-01-09T08:35:08;44.20;;;27.13;;
8654;SDS011;13500;52.514;13.462;2023-01-09T08:37:38;42.63;;;26.73;;
8654;SDS011;13500;52.514;13.462;2023-01-09T08:40:09;41.50;;;25.47;;
8654;SDS011;13500;52.514;13.462;2023-01-09T08:42:38;41.93;;;26.27;;
8654;SDS011;13500;52.514;13.462;2023-01-09T08:45:24;38.00;;;25.57;;
8654;SDS011;13500;52.514;13.462;2023-01-09T08:48:11;39.57;;;26.23;;
8654;SDS011;13500;52.514;13.462;2023-01-09T08:50:39;43.80;;;26.27;;
8654;SDS011;13500;52.514;13.462;2023-01-09T08:53:07;41.43;;;25.50;;
8654;SDS011;13500;52.514;13.462;2023-01-09T08:55:36;41.60;;;25.93;;
8654;SDS011;13500;52.514;13.462;2023-01-09T08:58:05;44.03;;;25.77;;
8654;SDS011;13500;52.514;13.462;2023-01-09T09:00:34;38.23;;;25.20;;
8654;SDS011;13500;52.514;13.462;2023-01-09T09:03:03;37.57;;;24.20;;
8654;SDS011;13500;52.514;13.462;2023-01-09T09:05:34;36.23;;;23.83;;
8654;SDS011;13500;52.514;13.462;2023-01-09T09:08:02;41.10;;;23.83;;
8654;SDS011;13500;52.514;13.462;2023-01-09T09:10:31;38.57;;;24.93;;
8654;SDS011;13500;52.514;13.462;2023-01-09T09:13:02;36.70;;;22.50;;
8654;SDS011;13500;52.514;13.462;2023-01-09T09:15:32;39.40;;;27.60;;
8654;SDS011;13500;52.514;13.462;2023-01-09T09:18:02;48.47;;;30.43;;
8654;SDS011;13500;52.514;13.462;2023-01-09T09:20:34;36.40;;;23.27;;
8654;SDS011;13500;52.514;13.462;2023-01-09T09:23:04;41.03;;;27.80;;
8654;SDS011;13500;52.514;13.462;2023-01-09T09:25:35;39.77;;;25.70;;
8654;SDS011;13500;52.514;13.462;2023-01-09T09:28:07;34.60;;;23.27;;
8654;SDS011;13500;52.514;13.462;2023-01-09T09:30:36;33.13;;;21.73;;
8654;SDS011;13500;52.514;13.462;2023-01-09T09:33:06;34.33;;;22.30;;
8654;SDS011;13500;52.514;13.462;2023-01-09T09:35:35;34.10;;;22.23;;
8654;SDS011;13500;52.514;13.462;2023-01-09T09:38:04;37.17;;;24.00;;
8654;SDS011;13500;52.514;13.462;2023-01-09T09:40:37;36.50;;;24.07;;
8654;SDS011;13500;52.514;13.462;2023-01-09T09:43:19;33.40;;;23.03;;
8654;SDS011;13500;52.514;13.462;2023-01-09T09:46:13;34.30;;;22.80;;
8654;SDS011;13500;52.514;13.462;2023-01-09T09:48:50;31.23;;;20.80;;
8654;SDS011;13500;52.514;13.462;2023-01-09T09:51:25;31.03;;;20.40;;
8654;SDS011;13500;52.514;13.462;2023-01-09T09:54:03;29.07;;;19.97;;
8654;SDS011;13500;52.514;13.462;2023-01-09T09:56:40;31.33;;;21.77;;
8654;SDS011;13500;52.514;13.462;2023-01-09T09:59:11;27.87;;;18.90;;
8654;SDS011;13500;52.514;13.462;2023-01-09T10:01:44;28.73;;;19.47;;
8654;SDS011;13500;52.514;13.462;2023-01-09T10:04:21;25.70;;;18.80;;
8654;SDS011;13500;52.514;13.462;2023-01-09T10:06:51;25.53;;;18.27;;
8654;SDS011;13500;52.514;13.462;2023-01-09T10:09:27;28.00;;;19.93;;
8654;SDS011;13500;52.514;13.462;2023-01-09T10:12:02;25.83;;;20.30;;
8654;SDS011;13500;52.514;13.462;2023-01-09T10:14:35;26.20;;;18.87;;
8654;SDS011;13500;52.514;13.462;2023-01-09T10:17:08;29.33;;;20.87;;
8654;SDS011;13500;52.514;13.462;2023-01-09T10:19:50;27.53;;;18.17;;
8654;SDS011;13500;52.514;13.462;2023-01-09T10:22:32;25.33;;;18.37;;
8654;SDS011;13500;52.514;13.462;2023-01-09T10:25:09;25.93;;;17.27;;
8654;SDS011;13500;52.514;13.462;2023-01-09T10:27:48;19.40;;;16.37;;
8654;SDS011;13500;52.514;13.462;2023-01-09T10:30:25;21.23;;;16.47;;
8654;SDS011;13500;52.514;13.462;2023-01-09T10:33:02;20.63;;;15.40;;
8654;SDS011;13500;52.514;13.462;2023-01-09T10:36:08;20.97;;;15.80;;
8654;SDS011;13500;52.514;13.462;2023-01-09T10:38:44;16.63;;;12.83;;
8654;SDS011;13500;52.514;13.462;2023-01-09T10:41:16;19.43;;;13.33;;
8654;SDS011;13500;52.514;13.462;2023-01-09T10:43:50;17.27;;;12.67;;
8654;SDS011;13500;52.514;13.462;2023-01-09T10:46:21;14.80;;;11.90;;
8654;SDS011;13500;52.514;13.462;2023-01-09T10:48:53;15.93;;;12.70;;
8654;SDS011;13500;52.514;13.462;2023-01-09T10:51:28;16.73;;;12.33;;
8654;SDS011;13500;52.514;13.462;2023-01-09T10:53:59;14.00;;;12.53;;
8654;SDS011;13500;52.514;13.462;2023-01-09T10:56:28;16.20;;;12.63;;
8654;SDS011;13500;52.514;13.462;2023-01-09T10:59:00;15.63;;;12.23;;
8654;SDS011;13500;52.514;13.462;2023-01-09T11:01:31;18.70;;;12.40;;
8654;SDS011;13500;52.514;13.462;2023-01-09T11:04:00;14.33;;;11.40;;
8654;SDS011;13500;52.514;13.462;2023-01-09T11:06:31;14.53;;;10.97;;
8654;SDS011;13500;52.514;13.462;2023-01-09T11:09:04;11.73;;;10.37;;
8654;SDS011;13500;52.514;13.462;2023-01-09T11:11:35;14.87;;;10.57;;
8654;SDS011;13500;52.514;13.462;2023-01-09T11:14:05;13.30;;;10.73;;
8654;SDS011;13500;52.514;13.462;2023-01-09T11:16:38;12.87;;;10.17;;
8654;SDS011;13500;52.514;13.462;2023-01-09T11:19:17;11.13;;;9.97;;
8654;SDS011;13500;52.514;13.462;2023-01-09T11:21:47;11.47;;;10.27;;
8654;SDS011;13500;52.514;13.462;2023-01-09T11:24:30;12.33;;;10.07;;
8654;SDS011;13500;52.514;13.462;2023-01-09T11:27:18;10.40;;;9.03;;
8654;SDS011;13500;52.514;13.462;2023-01-09T11:30:08;12.07;;;10.47;;
8654;SDS011;13500;52.514;13.462;2023-01-09T11:32:56;11.30;;;9.63;;
8654;SDS011;13500;52.514;13.462;2023-01-09T11:35:27;13.43;;;9.23;;
8654;SDS011;13500;52.514;13.462;2023-01-09T11:38:05;10.23;;;9.20;;
8654;SDS011;13500;52.514;13.462;2023-01-09T11:40:48;11.10;;;7.80;;
8654;SDS011;13500;52.514;13.462;2023-01-09T11:43:19;9.40;;;8.33;;
8654;SDS011;13500;52.514;13.462;2023-01-09T11:45:56;8.60;;;7.07;;
8654;SDS011;13500;52.514;13.462;2023-01-09T11:48:37;12.37;;;7.60;;
8654;SDS011;13500;52.514;13.462;2023-01-09T11:51:18;9.20;;;6.90;;
8654;SDS011;13500;52.514;13.462;2023-01-09T11:56:43;7.23;;;6.07;;
8654;SDS011;13500;52.514;13.462;2023-01-09T11:59:16;6.20;;;5.07;;
8654;SDS011;13500;52.514;13.462;2023-01-09T12:02:15;5.50;;;5.00;;
8654;SDS011;13500;52.514;13.462;2023-01-09T12:05:14;7.23;;;5.10;;
8654;SDS011;13500;52.514;13.462;2023-01-09T12:07:55;6.07;;;5.37;;
8654;SDS011;13500;52.514;13.462;2023-01-09T12:10:45;6.83;;;5.07;;
8654;SDS011;13500;52.514;13.462;2023-01-09T12:13:42;6.10;;;4.63;;
8654;SDS011;13500;52.514;13.462;2023-01-09T12:16:19;6.23;;;4.53;;
8654;SDS011;13500;52.514;13.462;2023-01-09T12:18:56;5.53;;;4.37;;
8654;SDS011;13500;52.514;13.462;2023-01-09T12:21:34;10.07;;;4.53;;
8654;SDS011;13500;52.514;13.462;2023-01-09T12:24:16;4.83;;;4.30;;
8654;SDS011;13500;52.514;13.462;2023-01-09T12:26:58;7.03;;;3.80;;
8654;SDS011;13500;52.514;13.462;2023-01-09T12:29:51;5.17;;;3.20;;
8654;SDS011;13500;52.514;13.462;2023-01-09T12:32:43;5.93;;;3.07;;
8654;SDS011;13500;52.514;13.462;2023-01-09T12:35:21;4.87;;;3.37;;
8654;SDS011;13500;52.514;13.462;2023-01-09T12:38:06;5.50;;;3.13;;
8654;SDS011;13500;52.514;13.462;2023-01-09T12:40:57;5.10;;;3.10;;
8654;SDS011;13500;52.514;13.462;2023-01-09T12:43:36;7.33;;;3.47;;
8654;SDS011;13500;52.514;13.462;2023-01-09T12:46:12;5.83;;;3.20;;
8654;SDS011;13500;52.514;13.462;2023-01-09T12:48:47;7.43;;;3.33;;
8654;SDS011;13500;52.514;13.462;2023-01-09T12:51:27;6.03;;;2.70;;
8654;SDS011;13500;52.514;13.462;2023-01-09T12:54:02;4.63;;;3.00;;
8654;SDS011;13500;52.514;13.462;2023-01-09T12:56:34;5.70;;;3.03;;
8654;SDS011;13500;52.514;13.462;2023-01-09T12:59:09;5.23;;;2.70;;
8654;SDS011;13500;52.514;13.462;2023-01-09T13:01:47;7.33;;;3.03;;
8654;SDS011;13500;52.514;13.462;2023-01-09T13:04:18;3.97;;;2.90;;
8654;SDS011;13500;52.514;13.462;2023-01-09T13:06:51;6.17;;;3.33;;
8654;SDS011;13500;52.514;13.462;2023-01-09T13:09:25;6.80;;;2.70;;
8654;SDS011;13500;52.514;13.462;2023-01-09T13:11:57;6.53;;;3.00;;
8654;SDS011;13500;52.514;13.462;2023-01-09T13:14:36;3.63;;;2.53;;
8654;SDS011;13500;52.514;13.462;2023-01-09T13:17:09;7.93;;;2.80;;
8654;SDS011;13500;52.514;13.462;2023-01-09T13:19:42;9.00;;;3.30;;
8654;SDS011;13500;52.514;13.462;2023-01-09T13:22:11;5.00;;;2.50;;
8654;SDS011;13500;52.514;13.462;2023-01-09T13:24:46;8.43;;;4.27;;
8654;SDS011;13500;52.514;13.462;2023-01-09T13:27:25;4.73;;;2.60;;
8654;SDS011;13500;52.514;13.462;2023-01-09T13:30:05;4.30;;;2.63;;
8654;SDS011;13500;52.514;13.462;2023-01-09T13:32:41;5.20;;;3.07;;
8654;SDS011;13500;52.514;13.462;2023-01-09T13:35:18;3.97;;;2.57;;
8654;SDS011;13500;52.514;13.462;2023-01-09T13:37:48;7.97;;;2.87;;
8654;SDS011;13500;52.514;13.462;2023-01-09T13:40:26;5.97;;;2.83;;
8654;SDS011;13500;52.514;13.462;2023-01-09T13:43:03;5.03;;;3.10;;
8654;SDS011;13500;52.514;13.462;2023-01-09T13:45:33;3.67;;;2.60;;
8654;SDS011;13500;52.514;13.462;2023-01-09T13:57:42;6.57;;;2.70;;
8654;SDS011;13500;52.514;13.462;2023-01-09T14:03:22;5.30;;;2.60;;
8654;SDS011;13500;52.514;13.462;2023-01-09T14:06:03;4.60;;;2.93;;
8654;SDS011;13500;52.514;13.462;2023-01-09T14:08:41;5.17;;;2.83;;
8654;SDS011;13500;52.514;13.462;2023-01-09T14:11:16;4.53;;;2.93;;
8654;SDS011;13500;52.514;13.462;2023-01-09T14:13:46;7.87;;;2.50;;
8654;SDS011;13500;52.514;13.462;2023-01-09T14:16:37;4.57;;;2.53;;
8654;SDS011;13500;52.514;13.462;2023-01-09T14:19:19;5.53;;;2.40;;
8654;SDS011;13500;52.514;13.462;2023-01-09T14:21:54;6.53;;;2.43;;
8654;SDS011;13500;52.514;13.462;2023-01-09T14:24:24;5.30;;;2.60;;
8654;SDS011;13500;52.514;13.462;2023-01-09T14:26:56;8.27;;;2.97;;
8654;SDS011;13500;52.514;13.462;2023-01-09T14:32:35;4.83;;;2.50;;
8654;SDS011;13500;52.514;13.462;2023-01-09T14:35:16;4.87;;;2.67;;
8654;SDS011;13500;52.514;13.462;2023-01-09T14:37:53;4.70;;;2.70;;
8654;SDS011;13500;52.514;13.462;2023-01-09T14:40:28;8.10;;;2.90;;
8654;SDS011;13500;52.514;13.462;2023-01-09T14:43:03;4.97;;;2.73;;
8654;SDS011;13500;52.514;13.462;2023-01-09T14:45:39;6.87;;;2.67;;
8654;SDS011;13500;52.514;13.462;2023-01-09T14:48:18;4.10;;;2.47;;
8654;SDS011;13500;52.514;13.462;2023-01-09T14:50:54;4.57;;;2.50;;
8654;SDS011;13500;52.514;13.462;2023-01-09T14:53:28;6.67;;;2.50;;
8654;SDS011;13500;52.514;13.462;2023-01-09T14:55:58;3.90;;;2.37;;
8654;SDS011;13500;52.514;13.462;2023-01-09T14:58:32;6.17;;;2.77;;
8654;SDS011;13500;52.514;13.462;2023-01-09T15:01:01;4.37;;;2.50;;
8654;SDS011;13500;52.514;13.462;2023-01-09T15:03:32;3.60;;;2.27;;
8654;SDS011;13500;52.514;13.462;2023-01-09T15:06:05;7.67;;;2.57;;
8654;SDS011;13500;52.514;13.462;2023-01-09T15:08:33;6.73;;;2.90;;
8654;SDS011;13500;52.514;13.462;2023-01-09T15:11:09;5.30;;;2.73;;
8654;SDS011;13500;52.514;13.462;2023-01-09T15:13:40;25.47;;;22.97;;
8654;SDS011;13500;52.514;13.462;2023-01-09T15:16:13;23.20;;;21.00;;
8654;SDS011;13500;52.514;13.462;2023-01-09T15:18:45;8.17;;;7.23;;